Terminal Aerodrome Forecast
Issued by NWS

Home | Current Version | Previous Version | Graphics & Text | Print | Product List | Glossary On
Versions: 1 2 3 4 5 6 7 8 9 10 11 12 13 14 15 16 17 18 19 20
000
FTUS43 KPAH 160500
TAFCGI
TAF
KCGI 160520Z 1606/1706 15002KT P6SM SCT250
     FM161400 16010KT P6SM SCT250
     FM161800 16015G21KT P6SM SCT250
     FM170000 17006KT P6SM FEW250=

USA.gov is the U.S. government's official web portal to all federal, state and local government web resources and services.